Aeroporto :
LOGIN :

Iscrizione | Disclaimer

   EN    FR    IT 

 










Sommario :    VFR   VFR Marginale   IFR   IFR Intensivo   IFR Molto Intensivo
Visibilità : 
Base nubi : 
>= 8 km
>= 3000ft
5 / 8 km
1000 / 3000 ft
1500m / 5 km
500 / 1000 ft
800 / 1500m
200 / 500 ft
< 800m
< 200 ft
Simboli :   Temporali  Nebbia  Neve Forte  Precipitazioni Forti  Vento > 20 kt
SIGMETs :   Varie  Temporali  Ghiacco  Turbolenza  Onda orograficha  Ceneri Vulcaniche







- Altitudine del aeroporto : 614 ft
- Codice IATA : CRL


EBCI - Charleroi

ULTIMO METAR :
  • 250820Z VRB02KT CAVOK 20/15 Q1018 NOSIG

METARs OBSOLETI :
  • 250750Z 22003KT 150V270 9999 FEW015 19/15 Q1018 NOSIG
  • 250720Z 22003KT 150V270 9999 FEW015 18/15 Q1018 NOSIG
  • 250650Z 18004KT 140V220 9999 FEW035 17/15 Q1018 NOSIG
  • 250620Z VRB02KT 9999 FEW035 16/14 Q1018 NOSIG
  • 250550Z VRB02KT 7000 FEW035 15/14 Q1018 NOSIG

TAF TAF EBCI
Valido dal 25 a 06 ore il 26 a 12 ore UTC


250520Z 2506/2612 VRB03KT 6000 NSC
PROB30
TEMPO 2506/2507 4000 BR
PROB30
TEMPO 2512/2520 VRB15G25KT 3000 SHRA TSRAGR
PROB30
TEMPO 2602/2606 2500 BR
Nessun NOTAM noto per questo aeroporto.



MetMap, La meteo Aeronautica in un colpo d'occhio ! - Copyright ORBIFLY Dicembre 2007 - Disclaimer

ORBIFLY MET'MAP TEAM :

Programmazione e sviluppo : Alexandra Zaïnal
Concezione e sviluppo : Baudouin d'Aumeries
Co-Programmazione e sviluppo : Marc-Olivier Méhu
Supporto tecnico e logistico : Manuel Goepfert
Aiuto per la traduzione : Arnaldo La Scala

Contatto : metmap@orbifly.com




FONTI E CREDITI :

   NOAA